Time;durP1;ratioP1;P1;durP2;ratioP2;P2;SDS_P1;SDS_P2;PMS_P1;PMS_P2;Temp;Humidity;BMP_temperature;BMP_pressure;BME280_temperature;BME280_humidity;BME280_pressure;Samples;Min_cycle;Max_cycle;Signal;HPM_P1;HPM_P2
2021/01/11 00:01:21;;;;;;;24.15;11.55;;;2.10;99.90;;;;;;5041052;28;20018;-47
2021/01/11 00:03:47;;;;;;;26.50;11.88;;;2.10;99.90;;;;;;5043909;28;20017;-48
2021/01/11 00:06:12;;;;;;;22.00;12.57;;;2.20;99.90;;;;;;5042208;28;20532;-45
2021/01/11 00:08:38;;;;;;;22.13;11.75;;;2.20;99.90;;;;;;5042148;28;20079;-45
2021/01/11 00:11:03;;;;;;;19.35;11.35;;;2.20;99.90;;;;;;5044697;28;20028;-45
2021/01/11 00:13:29;;;;;;;24.83;11.98;;;2.20;99.90;;;;;;5039577;28;20539;-46
2021/01/11 00:15:54;;;;;;;24.67;12.15;;;2.10;99.90;;;;;;5044150;28;20024;-46
2021/01/11 00:18:19;;;;;;;29.27;14.75;;;2.10;99.90;;;;;;5040113;28;20037;-47
2021/01/11 00:20:45;;;;;;;24.13;12.02;;;2.10;99.90;;;;;;5043824;28;20043;-46
2021/01/11 00:23:10;;;;;;;30.00;13.80;;;2.20;99.90;;;;;;5042690;28;20621;-44
2021/01/11 00:25:36;;;;;;;23.27;11.68;;;2.20;99.90;;;;;;5041392;28;20107;-45
2021/01/11 00:28:01;;;;;;;22.13;10.80;;;2.20;99.90;;;;;;5046314;28;20035;-47
2021/01/11 00:30:27;;;;;;;24.25;12.13;;;2.10;99.90;;;;;;5050123;28;20043;-45
2021/01/11 00:32:52;;;;;;;21.58;11.52;;;2.10;99.90;;;;;;5049980;28;20114;-46
2021/01/11 00:35:18;;;;;;;20.70;11.50;;;2.20;99.90;;;;;;5049366;28;20033;-45
2021/01/11 00:37:43;;;;;;;21.83;11.68;;;2.10;99.90;;;;;;5049940;28;20486;-46
2021/01/11 00:40:09;;;;;;;21.08;11.23;;;2.20;99.90;;;;;;5049929;28;20029;-45
2021/01/11 00:42:35;;;;;;;23.35;12.00;;;2.20;99.90;;;;;;5049346;28;20544;-45
2021/01/11 00:45:03;;;;;;;23.00;12.50;;;2.10;99.90;;;;;;5045715;28;20029;-45
2021/01/11 00:47:28;;;;;;;25.08;12.60;;;2.10;99.90;;;;;;5038332;28;20505;-44
2021/01/11 00:49:54;;;;;;;20.60;11.85;;;2.10;99.90;;;;;;5069911;28;20103;-46
2021/01/11 00:52:19;;;;;;;25.23;13.30;;;2.10;99.90;;;;;;5069556;28;20021;-46
2021/01/11 00:54:45;;;;;;;20.23;12.30;;;2.10;99.90;;;;;;5041160;28;20029;-46
2021/01/11 00:57:11;;;;;;;24.23;12.82;;;2.20;99.90;;;;;;5069327;28;20027;-44
2021/01/11 00:59:36;;;;;;;21.95;12.10;;;2.20;99.90;;;;;;5069698;28;20016;-47
2021/01/11 01:02:01;;;;;;;25.35;13.68;;;2.20;99.90;;;;;;5069441;28;20295;-46
2021/01/11 01:04:27;;;;;;;23.92;12.80;;;2.20;99.90;;;;;;5068767;28;20049;-45
2021/01/11 01:06:53;;;;;;;19.58;10.93;;;2.20;99.90;;;;;;5069636;28;20477;-46
2021/01/11 01:09:19;;;;;;;31.27;14.07;;;2.20;99.90;;;;;;5069538;28;20036;-46
2021/01/11 01:11:44;;;;;;;22.80;13.63;;;2.20;99.90;;;;;;5069268;28;20103;-45
2021/01/11 01:14:10;;;;;;;36.78;13.60;;;2.20;99.90;;;;;;5069702;28;20031;-45
2021/01/11 01:16:36;;;;;;;30.35;13.93;;;2.20;99.90;;;;;;5068765;28;20524;-47
2021/01/11 01:19:02;;;;;;;26.42;12.70;;;2.20;99.90;;;;;;5060990;28;20068;-46
2021/01/11 01:21:28;;;;;;;22.90;13.80;;;2.20;99.90;;;;;;5068935;28;20020;-45
2021/01/11 01:23:54;;;;;;;27.10;14.43;;;2.20;99.90;;;;;;5069088;28;20353;-48
2021/01/11 01:26:20;;;;;;;19.27;11.25;;;2.20;99.90;;;;;;5055999;28;20032;-44
2021/01/11 01:28:45;;;;;;;23.42;13.00;;;2.30;99.90;;;;;;5052028;28;20025;-44
2021/01/11 01:31:11;;;;;;;20.63;13.05;;;2.30;99.90;;;;;;5048799;28;20036;-45
2021/01/11 01:33:37;;;;;;;21.92;14.18;;;2.30;99.90;;;;;;5048830;28;20112;-45
2021/01/11 01:36:03;;;;;;;21.48;12.73;;;2.30;99.90;;;;;;5048432;28;20028;-45
2021/01/11 01:38:28;;;;;;;28.00;14.30;;;2.30;99.90;;;;;;5048727;28;20021;-44
2021/01/11 01:40:54;;;;;;;25.45;13.65;;;2.30;99.90;;;;;;5048548;28;20497;-45
2021/01/11 01:43:20;;;;;;;21.50;13.75;;;2.20;99.90;;;;;;5048577;28;20027;-44
2021/01/11 01:45:45;;;;;;;28.33;15.65;;;2.20;99.90;;;;;;5043470;28;20083;-45
2021/01/11 01:48:11;;;;;;;30.05;14.57;;;2.20;99.90;;;;;;5038140;28;20575;-45
2021/01/11 01:50:37;;;;;;;27.52;15.88;;;2.20;99.90;;;;;;5062676;28;20040;-45
2021/01/11 01:53:03;;;;;;;26.23;13.73;;;2.20;99.90;;;;;;5068208;28;20210;-45
2021/01/11 01:55:29;;;;;;;27.42;15.23;;;2.20;99.90;;;;;;5063590;28;20029;-46
2021/01/11 01:57:58;;;;;;;35.22;14.80;;;2.20;99.90;;;;;;5065876;28;20086;-45
2021/01/11 02:00:24;;;;;;;25.05;14.70;;;2.30;99.90;;;;;;5068649;28;20020;-45
2021/01/11 02:02:50;;;;;;;28.77;14.98;;;2.30;99.90;;;;;;5068594;28;20108;-45
2021/01/11 02:05:16;;;;;;;25.48;14.95;;;2.30;99.90;;;;;;5068150;28;20358;-47
2021/01/11 02:07:59;;;;;;;25.38;14.93;;;2.30;99.90;;;;;;5068626;28;20029;-44
2021/01/11 02:10:26;;;;;;;29.73;16.05;;;2.30;99.90;;;;;;5066798;28;20066;-44
2021/01/11 02:13:21;;;;;;;29.95;16.15;;;2.30;99.90;;;;;;5068018;28;20024;-44
2021/01/11 02:15:59;;;;;;;25.75;15.98;;;2.30;99.90;;;;;;5067807;28;20020;-45
2021/01/11 02:18:46;;;;;;;29.42;17.00;;;2.40;99.90;;;;;;5064898;28;20032;-44
2021/01/11 02:21:40;;;;;;;31.08;15.88;;;2.30;99.90;;;;;;5068169;28;20020;-45
2021/01/11 02:24:06;;;;;;;28.15;16.25;;;2.30;99.90;;;;;;5047276;28;20028;-45
2021/01/11 02:26:55;;;;;;;23.55;16.35;;;2.30;99.90;;;;;;5060628;28;20013;-44
2021/01/11 02:29:53;;;;;;;32.00;16.73;;;2.30;99.90;;;;;;5061250;28;20093;-43
2021/01/11 02:32:21;;;;;;;35.58;16.73;;;2.30;99.90;;;;;;5047623;28;20316;-44
2021/01/11 02:34:48;;;;;;;30.00;15.75;;;2.30;99.90;;;;;;5047475;28;20032;-44
2021/01/11 02:37:14;;;;;;;30.25;16.88;;;2.30;99.90;;;;;;5047578;28;20025;-44
2021/01/11 02:39:41;;;;;;;38.00;17.70;;;2.30;99.90;;;;;;5047603;28;20515;-44
2021/01/11 02:42:06;;;;;;;28.63;16.77;;;2.30;99.90;;;;;;5047187;28;20155;-45
2021/01/11 02:44:32;;;;;;;31.30;16.60;;;2.30;99.90;;;;;;5046791;28;20425;-44
2021/01/11 02:46:57;;;;;;;27.10;16.98;;;2.30;99.90;;;;;;5044621;28;20498;-43
2021/01/11 02:49:30;;;;;;;31.23;17.90;;;2.30;99.90;;;;;;5041439;28;20025;-44
2021/01/11 02:52:10;;;;;;;32.50;16.63;;;2.30;99.90;;;;;;5046326;28;20025;-45
2021/01/11 02:54:39;;;;;;;32.92;18.20;;;2.30;99.90;;;;;;5045466;28;20194;-45
2021/01/11 02:57:21;;;;;;;31.50;17.25;;;2.30;99.90;;;;;;5046292;28;20025;-46
2021/01/11 02:59:52;;;;;;;34.13;18.30;;;2.20;99.90;;;;;;5047431;28;20021;-47
2021/01/11 03:02:19;;;;;;;30.15;16.25;;;2.30;99.90;;;;;;5047307;28;20017;-45
2021/01/11 03:04:46;;;;;;;29.40;16.23;;;2.30;99.90;;;;;;5046813;28;20013;-45
2021/01/11 03:07:11;;;;;;;34.70;18.50;;;2.30;99.90;;;;;;5047333;28;20029;-45
2021/01/11 03:09:42;;;;;;;31.52;16.27;;;2.30;99.90;;;;;;5046908;28;20510;-47
2021/01/11 03:12:09;;;;;;;28.35;16.40;;;2.30;99.90;;;;;;5047182;28;20082;-44
2021/01/11 03:14:35;;;;;;;32.88;15.77;;;2.40;99.90;;;;;;5047226;28;20405;-45
2021/01/11 03:17:02;;;;;;;26.20;16.10;;;2.40;99.90;;;;;;5047665;28;20021;-45
2021/01/11 03:19:28;;;;;;;30.30;17.00;;;2.40;99.90;;;;;;5046846;28;20499;-44
2021/01/11 03:21:54;;;;;;;27.20;16.38;;;2.40;99.90;;;;;;5047352;28;20109;-44
2021/01/11 03:24:21;;;;;;;27.73;16.10;;;2.50;99.90;;;;;;5058833;28;20413;-45
2021/01/11 03:26:48;;;;;;;32.28;15.73;;;2.50;99.90;;;;;;5062953;28;20017;-45
2021/01/11 03:29:14;;;;;;;29.80;16.73;;;2.50;99.90;;;;;;5053137;28;20029;-45
2021/01/11 03:31:40;;;;;;;25.63;15.57;;;2.50;99.90;;;;;;5055766;28;20021;-44
2021/01/11 03:34:07;;;;;;;35.15;16.90;;;2.50;99.90;;;;;;5047222;28;20017;-45
2021/01/11 03:36:32;;;;;;;28.13;15.95;;;2.50;99.90;;;;;;5046767;28;20025;-45
2021/01/11 03:38:58;;;;;;;27.60;14.82;;;2.50;99.90;;;;;;5045911;28;20051;-47
2021/01/11 03:41:23;;;;;;;31.80;16.20;;;2.50;99.90;;;;;;5046772;28;20256;-44
2021/01/11 03:43:49;;;;;;;42.53;16.48;;;2.50;99.90;;;;;;5061301;28;20027;-44
2021/01/11 03:46:17;;;;;;;29.08;15.05;;;2.40;99.90;;;;;;5066514;28;20028;-45
2021/01/11 03:48:43;;;;;;;26.52;15.68;;;2.40;99.90;;;;;;5052059;28;20052;-44
2021/01/11 03:51:09;;;;;;;29.52;16.42;;;2.40;99.90;;;;;;5052179;28;20031;-45
2021/01/11 03:53:35;;;;;;;28.30;14.85;;;2.40;99.90;;;;;;5070746;28;20346;-45
2021/01/11 03:56:07;;;;;;;34.05;16.73;;;2.40;99.90;;;;;;5065713;28;20204;-44
2021/01/11 03:58:33;;;;;;;26.27;15.30;;;2.40;99.90;;;;;;5070726;28;20030;-45
2021/01/11 04:00:59;;;;;;;27.60;14.88;;;2.40;99.90;;;;;;5069334;28;20067;-44
2021/01/11 04:03:25;;;;;;;27.52;15.43;;;2.40;99.90;;;;;;5068943;28;20020;-43
2021/01/11 04:05:50;;;;;;;25.75;15.73;;;2.40;99.90;;;;;;5070128;28;20019;-44
2021/01/11 04:08:16;;;;;;;22.98;14.52;;;2.30;99.90;;;;;;5070448;28;20029;-45
2021/01/11 04:10:41;;;;;;;29.40;15.15;;;2.40;99.90;;;;;;5070302;28;20032;-44
2021/01/11 04:13:07;;;;;;;25.83;15.02;;;2.40;99.90;;;;;;5070210;28;20025;-44
2021/01/11 04:15:34;;;;;;;25.10;14.88;;;2.40;99.90;;;;;;5069974;28;20028;-45
2021/01/11 04:17:59;;;;;;;24.15;14.52;;;2.40;99.90;;;;;;5070133;28;20217;-44
2021/01/11 04:20:26;;;;;;;25.17;15.40;;;2.40;99.90;;;;;;5057033;28;20046;-46
2021/01/11 04:22:52;;;;;;;31.15;15.65;;;2.40;99.90;;;;;;5068079;28;20055;-44
2021/01/11 04:25:17;;;;;;;29.23;15.43;;;2.40;99.90;;;;;;5064635;28;20389;-44
2021/01/11 04:27:43;;;;;;;26.08;14.80;;;2.40;99.90;;;;;;5053392;28;20021;-44
2021/01/11 04:30:10;;;;;;;29.05;14.75;;;2.40;99.90;;;;;;5050230;28;20383;-44
2021/01/11 04:32:35;;;;;;;28.23;14.70;;;2.40;99.90;;;;;;5049919;28;20342;-44
2021/01/11 04:35:03;;;;;;;28.20;15.13;;;2.40;99.90;;;;;;5049572;28;20152;-44
2021/01/11 04:37:29;;;;;;;23.65;13.40;;;2.30;99.90;;;;;;5050050;28;20024;-44
2021/01/11 04:39:55;;;;;;;23.20;14.93;;;2.40;99.90;;;;;;5067071;28;20078;-45
2021/01/11 04:42:28;;;;;;;25.23;14.68;;;2.40;99.90;;;;;;5051183;28;20032;-45
2021/01/11 04:44:55;;;;;;;23.08;13.65;;;2.40;99.90;;;;;;5048697;28;20068;-45
2021/01/11 04:47:23;;;;;;;24.80;15.20;;;2.30;99.90;;;;;;5047584;28;20021;-46
2021/01/11 04:49:53;;;;;;;27.33;14.63;;;2.40;99.90;;;;;;5034120;28;20033;-44
2021/01/11 04:52:19;;;;;;;24.52;13.85;;;2.40;99.90;;;;;;5045551;28;20511;-47
2021/01/11 04:54:49;;;;;;;26.60;14.73;;;2.30;99.90;;;;;;5046499;28;20033;-45
2021/01/11 04:57:15;;;;;;;37.75;16.75;;;2.40;99.90;;;;;;5047698;28;20025;-48
2021/01/11 04:59:50;;;;;;;27.30;14.88;;;2.30;99.90;;;;;;5046889;28;20032;-44
2021/01/11 05:02:22;;;;;;;25.35;15.10;;;2.30;99.90;;;;;;5063955;28;20389;-46
2021/01/11 05:04:49;;;;;;;25.25;14.10;;;2.30;99.90;;;;;;5055580;28;20025;-45
2021/01/11 05:07:16;;;;;;;24.27;14.43;;;2.30;99.90;;;;;;5040366;28;20017;-45
2021/01/11 05:09:45;;;;;;;23.50;14.15;;;2.30;99.90;;;;;;5039794;28;20402;-44
2021/01/11 05:12:13;;;;;;;25.08;13.68;;;2.40;99.90;;;;;;5037862;28;20478;-44
2021/01/11 05:14:39;;;;;;;25.70;14.57;;;2.40;99.90;;;;;;5040611;28;20036;-45
2021/01/11 05:17:05;;;;;;;26.15;14.63;;;2.40;99.90;;;;;;5037402;28;20104;-45
2021/01/11 05:19:31;;;;;;;24.17;13.90;;;2.40;99.90;;;;;;5041737;28;20389;-44
2021/01/11 05:21:56;;;;;;;26.85;15.45;;;2.40;99.90;;;;;;5036534;28;20017;-45
2021/01/11 05:24:50;;;;;;;30.45;14.02;;;2.40;99.90;;;;;;5040633;28;20535;-46
2021/01/11 05:27:15;;;;;;;24.17;14.68;;;2.40;99.90;;;;;;5043493;28;20072;-44
2021/01/11 05:29:41;;;;;;;23.85;14.13;;;2.40;99.90;;;;;;5049156;28;20037;-46
2021/01/11 05:32:08;;;;;;;22.38;13.13;;;2.50;99.90;;;;;;5048632;28;20564;-45
2021/01/11 05:34:53;;;;;;;26.13;14.77;;;2.40;99.90;;;;;;5059374;28;20486;-46
2021/01/11 05:37:42;;;;;;;21.73;12.07;;;2.40;99.90;;;;;;5064050;28;20067;-45
2021/01/11 05:40:16;;;;;;;23.63;12.43;;;2.50;99.90;;;;;;5067226;28;20016;-44
2021/01/11 05:42:47;;;;;;;25.08;12.80;;;2.50;99.90;;;;;;5063184;28;20012;-45
2021/01/11 05:45:14;;;;;;;;;;;2.50;99.90;;;;;;5065745;28;20020;-44
2021/01/11 05:48:08;;;;;;;23.45;12.90;;;2.40;99.90;;;;;;5041152;28;19905;-45
2021/01/11 05:50:45;;;;;;;26.58;13.32;;;2.50;99.90;;;;;;5036741;28;20027;-45
2021/01/11 05:53:21;;;;;;;23.23;12.18;;;2.40;99.90;;;;;;5042254;28;20025;-45
2021/01/11 05:55:48;;;;;;;23.15;12.57;;;2.50;99.90;;;;;;5041355;28;20036;-45
2021/01/11 05:58:14;;;;;;;20.58;11.57;;;2.40;99.90;;;;;;5036199;28;20479;-44
2021/01/11 06:00:41;;;;;;;19.63;11.57;;;2.50;99.90;;;;;;5040922;28;20041;-45
2021/01/11 06:03:08;;;;;;;18.77;11.40;;;2.50;99.90;;;;;;5037263;28;20021;-45
2021/01/11 06:05:34;;;;;;;20.35;11.93;;;2.50;99.90;;;;;;5039739;28;20492;-44
2021/01/11 06:08:01;;;;;;;18.15;10.85;;;2.50;99.90;;;;;;5041363;28;20041;-44
2021/01/11 06:10:27;;;;;;;23.13;11.60;;;2.50;99.90;;;;;;5039926;28;20461;-45
2021/01/11 06:12:54;;;;;;;26.38;11.13;;;2.40;99.90;;;;;;5061318;28;20487;-45
2021/01/11 06:15:25;;;;;;;21.80;11.32;;;2.60;99.90;;;;;;5057348;28;20036;-45
2021/01/11 06:17:52;;;;;;;19.60;11.30;;;2.60;99.90;;;;;;5044387;28;20492;-44
2021/01/11 06:20:29;;;;;;;19.85;11.05;;;2.60;99.90;;;;;;5041286;28;20041;-47
2021/01/11 06:22:57;;;;;;;21.48;11.00;;;2.60;99.90;;;;;;5046806;28;20063;-45
2021/01/11 06:25:28;;;;;;;26.80;11.95;;;2.50;99.90;;;;;;5061568;28;20036;-44
2021/01/11 06:28:08;;;;;;;21.40;11.23;;;2.60;99.90;;;;;;5044435;28;20032;-43
2021/01/11 06:30:34;;;;;;;19.40;10.63;;;2.50;99.90;;;;;;5048368;28;20029;-44
2021/01/11 06:33:08;;;;;;;22.25;10.82;;;2.50;99.90;;;;;;5061305;28;20266;-44
2021/01/11 06:35:36;;;;;;;19.88;10.95;;;2.40;99.90;;;;;;5054176;28;20028;-44
2021/01/11 06:38:28;;;;;;;19.42;10.68;;;2.40;99.90;;;;;;5064312;28;20036;-44
2021/01/11 06:41:03;;;;;;;17.45;9.70;;;2.40;99.90;;;;;;5055211;28;20175;-43
2021/01/11 06:43:38;;;;;;;23.10;10.63;;;2.40;99.90;;;;;;5065599;28;20021;-45
2021/01/11 06:46:04;;;;;;;20.77;10.45;;;2.40;99.90;;;;;;5059115;28;20025;-43
2021/01/11 06:48:33;;;;;;;20.58;10.93;;;2.40;99.90;;;;;;5060860;28;20035;-44
2021/01/11 06:51:08;;;;;;;15.98;9.75;;;2.40;99.90;;;;;;5056447;28;20033;-45
2021/01/11 06:53:34;;;;;;;19.75;10.88;;;2.50;99.90;;;;;;5063467;28;20107;-45
2021/01/11 06:56:25;;;;;;;17.83;9.98;;;2.50;99.90;;;;;;5060459;28;20247;-45
2021/01/11 06:58:50;;;;;;;18.42;10.13;;;2.40;99.90;;;;;;5062898;28;20028;-44
2021/01/11 07:01:27;;;;;;;18.48;10.25;;;2.40;99.90;;;;;;5056760;28;20031;-44
2021/01/11 07:03:53;;;;;;;19.20;10.25;;;2.40;99.90;;;;;;5061985;28;20044;-45
2021/01/11 07:06:35;;;;;;;18.80;10.35;;;2.40;99.90;;;;;;5051774;28;20403;-46
2021/01/11 07:09:11;;;;;;;21.98;10.13;;;2.40;99.90;;;;;;5058416;28;20025;-44
2021/01/11 07:11:45;;;;;;;22.08;11.07;;;2.40;99.90;;;;;;5061660;28;20485;-45
2021/01/11 07:14:12;;;;;;;21.27;9.93;;;2.40;99.90;;;;;;5065717;28;20029;-46
2021/01/11 07:16:52;;;;;;;17.48;10.75;;;2.40;99.90;;;;;;5054756;28;20029;-46
2021/01/11 07:19:36;;;;;;;18.27;10.20;;;2.30;99.90;;;;;;5060682;28;20496;-44
2021/01/11 07:22:04;;;;;;;20.05;10.52;;;2.40;99.90;;;;;;5060503;28;20182;-43
2021/01/11 07:24:29;;;;;;;17.35;9.35;;;2.40;99.90;;;;;;5062837;28;20020;-44
2021/01/11 07:26:55;;;;;;;19.45;10.30;;;2.40;99.90;;;;;;5054485;28;20421;-43
2021/01/11 07:29:22;;;;;;;16.60;9.48;;;2.50;99.90;;;;;;5066332;28;20032;-44
2021/01/11 07:31:48;;;;;;;20.33;9.60;;;2.50;99.90;;;;;;5068397;28;20027;-44
2021/01/11 07:34:13;;;;;;;17.25;9.30;;;2.50;99.90;;;;;;5061287;28;20029;-45
2021/01/11 07:36:41;;;;;;;17.00;10.10;;;2.50;99.90;;;;;;5064887;28;20031;-44
2021/01/11 07:39:08;;;;;;;16.88;8.55;;;2.60;99.90;;;;;;5065076;28;20058;-44
2021/01/11 07:41:36;;;;;;;19.02;8.88;;;2.50;99.90;;;;;;5062244;28;20115;-45
2021/01/11 07:44:21;;;;;;;15.70;8.80;;;2.60;99.90;;;;;;5068336;28;20117;-44
2021/01/11 07:46:58;;;;;;;18.70;9.98;;;2.60;99.90;;;;;;5070807;28;20170;-44
2021/01/11 07:49:24;;;;;;;19.05;10.18;;;2.50;99.90;;;;;;5054122;28;20025;-45
2021/01/11 07:51:50;;;;;;;19.58;9.48;;;2.50;99.90;;;;;;5066614;28;20327;-44
2021/01/11 07:54:19;;;;;;;17.20;10.05;;;2.40;99.90;;;;;;5063696;28;20028;-44
2021/01/11 07:56:47;;;;;;;20.33;9.27;;;2.40;99.90;;;;;;5066360;28;20112;-46
2021/01/11 07:59:13;;;;;;;20.13;10.38;;;2.40;99.90;;;;;;5061061;28;20051;-44
2021/01/11 08:01:44;;;;;;;16.30;9.23;;;2.40;99.90;;;;;;5069347;28;20017;-45
2021/01/11 08:04:10;;;;;;;23.77;9.65;;;2.40;99.90;;;;;;5067666;28;20008;-44
2021/01/11 08:06:55;;;;;;;17.80;9.93;;;2.30;99.90;;;;;;5059844;28;20169;-45
2021/01/11 08:09:27;;;;;;;17.35;9.75;;;2.40;99.90;;;;;;5048875;28;20094;-46
2021/01/11 08:12:11;;;;;;;19.23;9.93;;;2.40;99.90;;;;;;5043720;28;20026;-44
2021/01/11 08:14:36;;;;;;;16.92;9.52;;;2.40;99.90;;;;;;5031363;28;20057;-45
2021/01/11 08:17:05;;;;;;;18.00;11.27;;;2.30;99.90;;;;;;5031453;28;20063;-45
2021/01/11 08:19:31;;;;;;;19.48;10.65;;;2.30;99.90;;;;;;5049351;28;20544;-45
2021/01/11 08:21:58;;;;;;;17.10;10.43;;;2.30;99.90;;;;;;5030174;28;20033;-45
2021/01/11 08:24:23;;;;;;;21.55;11.75;;;2.20;99.90;;;;;;5030934;28;20029;-44
2021/01/11 08:27:14;;;;;;;26.92;12.07;;;2.20;99.90;;;;;;5031438;28;20028;-45
2021/01/11 08:29:41;;;;;;;26.23;12.38;;;2.20;99.90;;;;;;5039941;28;20048;-46
2021/01/11 08:32:16;;;;;;;22.65;11.75;;;2.20;99.90;;;;;;5050401;28;20564;-45
2021/01/11 08:34:42;;;;;;;21.35;12.30;;;2.10;99.90;;;;;;5050158;28;20405;-44
2021/01/11 08:37:20;;;;;;;23.17;12.93;;;2.10;99.90;;;;;;5050000;28;20025;-44
2021/01/11 08:40:02;;;;;;;22.20;12.15;;;2.10;99.90;;;;;;5050116;28;20085;-44
2021/01/11 08:42:29;;;;;;;24.88;13.50;;;1.90;99.90;;;;;;5050319;28;20505;-45
2021/01/11 08:44:55;;;;;;;27.33;13.43;;;1.90;99.90;;;;;;5049696;28;20029;-44
2021/01/11 08:47:28;;;;;;;29.00;12.35;;;2.00;99.90;;;;;;5051146;28;20478;-45
2021/01/11 08:50:02;;;;;;;24.92;13.90;;;1.90;99.90;;;;;;5062797;28;20036;-46
2021/01/11 08:52:30;;;;;;;31.90;14.45;;;1.90;99.90;;;;;;5065098;28;20049;-47
2021/01/11 08:54:56;;;;;;;23.65;12.75;;;1.80;99.90;;;;;;5069384;28;20051;-44
2021/01/11 08:57:26;;;;;;;30.42;14.82;;;1.80;99.90;;;;;;5069786;28;20040;-44
2021/01/11 08:59:53;;;;;;;26.13;14.05;;;1.80;99.90;;;;;;5055654;28;20429;-46
2021/01/11 09:02:23;;;;;;;26.67;13.70;;;1.80;99.90;;;;;;5069889;28;20032;-47
2021/01/11 09:04:50;;;;;;;30.23;14.85;;;1.80;99.90;;;;;;5068040;28;20401;-48
2021/01/11 09:07:25;;;;;;;31.40;14.57;;;1.80;99.90;;;;;;5067145;28;20029;-44
2021/01/11 09:09:51;;;;;;;33.33;14.52;;;1.90;99.90;;;;;;5061642;28;20020;-46
2021/01/11 09:12:28;;;;;;;27.27;14.05;;;1.80;99.90;;;;;;5069060;28;20497;-45
2021/01/11 09:14:54;;;;;;;26.05;13.38;;;1.80;99.90;;;;;;5061345;28;20095;-46
2021/01/11 09:17:27;;;;;;;25.38;13.30;;;1.80;99.90;;;;;;5062900;28;20029;-46
2021/01/11 09:19:53;;;;;;;25.70;13.50;;;1.80;99.90;;;;;;5063889;28;20383;-45
2021/01/11 09:22:29;;;;;;;25.60;13.50;;;1.80;99.90;;;;;;5058582;28;20032;-47
2021/01/11 09:24:55;;;;;;;29.23;13.52;;;1.80;99.90;;;;;;5059261;28;20036;-44
2021/01/11 09:27:20;;;;;;;27.20;14.80;;;1.80;99.90;;;;;;5063050;28;20464;-45
2021/01/11 09:29:46;;;;;;;25.38;13.50;;;1.80;99.90;;;;;;5063749;28;20478;-45
2021/01/11 09:32:11;;;;;;;29.58;13.88;;;1.80;99.90;;;;;;5064163;28;20048;-45
2021/01/11 09:34:37;;;;;;;35.25;14.52;;;1.90;99.90;;;;;;5063046;28;20063;-45
2021/01/11 09:37:02;;;;;;;27.30;15.00;;;1.90;99.90;;;;;;5064272;28;20037;-49
2021/01/11 09:39:28;;;;;;;21.92;13.43;;;2.00;99.90;;;;;;5061221;28;20366;-45
2021/01/11 09:41:58;;;;;;;27.83;13.90;;;2.10;99.90;;;;;;5064080;28;20017;-45
2021/01/11 09:44:24;;;;;;;;;;;2.10;99.90;;;;;;5067714;28;20117;-45
2021/01/11 09:46:52;;;;;;;26.73;13.23;;;2.10;99.90;;;;;;5063554;28;20011;-45
2021/01/11 09:49:18;;;;;;;29.10;14.73;;;2.10;99.90;;;;;;5057575;28;20059;-46
2021/01/11 09:51:43;;;;;;;29.33;13.68;;;2.10;99.90;;;;;;5063594;28;20465;-46
2021/01/11 09:54:09;;;;;;;27.08;14.20;;;2.20;99.90;;;;;;5055020;28;20560;-45
2021/01/11 09:56:36;;;;;;;24.95;13.40;;;2.20;99.90;;;;;;5062966;28;20107;-45
2021/01/11 09:59:02;;;;;;;25.65;13.75;;;2.20;99.90;;;;;;5066467;28;20066;-46
2021/01/11 10:01:44;;;;;;;29.95;13.50;;;2.30;99.90;;;;;;5064797;28;20105;-47
2021/01/11 10:04:12;;;;;;;26.85;14.57;;;2.30;99.90;;;;;;5057923;28;20170;-45
2021/01/11 10:06:47;;;;;;;26.13;13.48;;;2.30;99.90;;;;;;5065467;28;20017;-45
2021/01/11 10:09:15;;;;;;;22.88;12.43;;;2.50;99.90;;;;;;5066911;28;20028;-45
2021/01/11 10:11:43;;;;;;;23.08;13.02;;;2.40;99.90;;;;;;5058428;28;20105;-45
2021/01/11 10:14:09;;;;;;;22.40;12.85;;;2.40;99.90;;;;;;5064529;28;20354;-46
2021/01/11 10:16:39;;;;;;;26.77;12.90;;;2.40;99.90;;;;;;5064565;28;20028;-45
2021/01/11 10:19:04;;;;;;;28.30;12.35;;;2.30;99.90;;;;;;5064467;28;20036;-45
2021/01/11 10:21:29;;;;;;;21.42;11.40;;;2.40;99.90;;;;;;5064733;28;20028;-45
2021/01/11 10:23:55;;;;;;;19.52;12.23;;;2.40;99.90;;;;;;5063884;28;20024;-45
2021/01/11 10:26:22;;;;;;;23.75;12.90;;;2.40;99.90;;;;;;5063584;28;20541;-44
2021/01/11 10:28:49;;;;;;;23.15;12.40;;;2.30;99.90;;;;;;5056793;28;20163;-45
2021/01/11 10:31:19;;;;;;;23.65;12.10;;;2.30;99.90;;;;;;5049979;28;20036;-46
2021/01/11 10:33:46;;;;;;;23.15;11.35;;;2.40;99.90;;;;;;5062156;28;20025;-45
2021/01/11 10:36:12;;;;;;;24.23;11.65;;;2.40;99.90;;;;;;5042562;28;20094;-46
2021/01/11 10:38:38;;;;;;;19.40;10.00;;;2.50;99.90;;;;;;5042654;28;20083;-46
2021/01/11 10:41:04;;;;;;;20.17;10.23;;;2.50;99.90;;;;;;5037511;28;20442;-46
2021/01/11 10:43:30;;;;;;;20.58;10.60;;;2.50;99.90;;;;;;5042741;28;20478;-51
2021/01/11 10:45:56;;;;;;;19.58;10.48;;;2.60;99.90;;;;;;5039084;28;20568;-51
2021/01/11 10:48:21;;;;;;;18.88;11.00;;;2.60;99.90;;;;;;5040536;28;20107;-51
2021/01/11 10:50:47;;;;;;;22.05;10.05;;;2.70;99.90;;;;;;5049246;28;20098;-51
2021/01/11 10:53:13;;;;;;;15.32;9.77;;;2.70;99.90;;;;;;5050114;28;20041;-51
2021/01/11 10:55:38;;;;;;;21.35;11.73;;;2.70;99.90;;;;;;5049634;28;20032;-51
2021/01/11 10:58:03;;;;;;;23.95;12.32;;;2.60;99.90;;;;;;5054796;28;20313;-51
2021/01/11 11:00:29;;;;;;;16.55;10.10;;;2.70;99.90;;;;;;5047557;28;20025;-51
2021/01/11 11:02:54;;;;;;;17.80;9.70;;;2.70;99.90;;;;;;5052138;28;20494;-51
2021/01/11 11:05:20;;;;;;;22.08;10.20;;;2.70;99.90;;;;;;5051787;28;20021;-51
2021/01/11 11:07:45;;;;;;;17.08;10.13;;;2.70;99.90;;;;;;5051063;28;20036;-51
2021/01/11 11:10:12;;;;;;;22.85;10.65;;;2.80;99.90;;;;;;5067925;28;20472;-52
2021/01/11 11:12:37;;;;;;;19.17;10.20;;;2.90;99.90;;;;;;5051097;28;20501;-51
2021/01/11 11:15:04;;;;;;;20.60;10.70;;;2.90;99.90;;;;;;5049296;28;20079;-51
2021/01/11 11:17:32;;;;;;;18.98;11.15;;;2.80;99.90;;;;;;5052259;28;20021;-51
2021/01/11 11:20:02;;;;;;;20.23;10.43;;;2.80;99.90;;;;;;5048892;28;20021;-50
2021/01/11 11:22:27;;;;;;;20.23;10.52;;;2.80;99.90;;;;;;5052189;28;20021;-49
2021/01/11 11:24:53;;;;;;;17.10;9.68;;;2.80;99.90;;;;;;5052487;28;20108;-51
2021/01/11 11:27:19;;;;;;;23.85;9.85;;;2.80;99.90;;;;;;5053843;28;20305;-51
2021/01/11 11:29:45;;;;;;;19.30;11.10;;;2.80;99.90;;;;;;5064583;28;20024;-51
2021/01/11 11:32:11;;;;;;;18.67;9.80;;;2.90;99.90;;;;;;5053044;28;20051;-52
2021/01/11 11:34:40;;;;;;;21.52;10.27;;;2.90;99.90;;;;;;5053835;28;20068;-52
2021/01/11 11:37:05;;;;;;;18.58;9.90;;;2.90;99.90;;;;;;5052728;28;20486;-51
2021/01/11 11:39:31;;;;;;;19.77;9.35;;;2.90;99.90;;;;;;5053912;28;20052;-51
2021/01/11 11:41:59;;;;;;;16.45;9.45;;;3.00;99.90;;;;;;5046911;28;20353;-51
2021/01/11 11:44:25;;;;;;;18.27;9.52;;;3.00;99.90;;;;;;5042179;28;20029;-50
2021/01/11 11:46:52;;;;;;;16.48;9.73;;;3.00;99.90;;;;;;5033982;28;20021;-51
2021/01/11 11:49:17;;;;;;;17.48;10.00;;;3.00;99.90;;;;;;5037863;28;20523;-52
2021/01/11 11:51:44;;;;;;;19.83;10.13;;;3.10;99.90;;;;;;5038372;28;20064;-52
2021/01/11 11:54:09;;;;;;;18.08;9.75;;;3.10;99.90;;;;;;5035911;28;20117;-51
2021/01/11 11:56:41;;;;;;;18.55;10.10;;;3.10;99.90;;;;;;5048159;28;20099;-51
2021/01/11 11:59:07;;;;;;;15.85;9.18;;;3.20;99.90;;;;;;5042790;28;20070;-51
2021/01/11 12:01:40;;;;;;;14.43;8.98;;;3.20;99.90;;;;;;5044589;28;20032;-51
2021/01/11 12:04:07;;;;;;;18.63;9.15;;;3.20;99.90;;;;;;5044584;28;20029;-51
2021/01/11 12:06:40;;;;;;;19.27;9.90;;;3.20;99.90;;;;;;5043852;28;20028;-51
2021/01/11 12:09:06;;;;;;;19.02;10.00;;;3.20;99.90;;;;;;5043942;28;20103;-51
2021/01/11 12:11:38;;;;;;;17.17;9.77;;;3.20;99.90;;;;;;5053666;28;20681;-52
2021/01/11 12:14:04;;;;;;;16.65;9.75;;;3.20;99.90;;;;;;5050182;28;20032;-51
2021/01/11 12:16:29;;;;;;;16.77;7.97;;;3.20;99.90;;;;;;5050772;28;20029;-51
2021/01/11 12:18:54;;;;;;;19.45;9.77;;;3.30;99.90;;;;;;5049607;28;20048;-51
2021/01/11 12:21:30;;;;;;;17.38;9.02;;;3.20;99.90;;;;;;5051239;28;20032;-51
2021/01/11 12:23:56;;;;;;;16.60;9.38;;;3.20;99.90;;;;;;5049752;28;20104;-51
2021/01/11 12:26:22;;;;;;;17.67;9.35;;;3.00;99.90;;;;;;5050352;28;20430;-51
2021/01/11 12:28:47;;;;;;;18.50;9.18;;;3.10;99.90;;;;;;5050014;28;20687;-50
2021/01/11 12:31:13;;;;;;;16.30;9.52;;;3.00;99.90;;;;;;5050691;28;20486;-51
2021/01/11 12:33:38;;;;;;;15.48;9.15;;;3.10;99.90;;;;;;5050282;28;20458;-50
2021/01/11 12:36:04;;;;;;;14.43;8.10;;;3.20;99.90;;;;;;5050057;28;20126;-51
2021/01/11 12:38:30;;;;;;;18.40;9.98;;;3.20;99.90;;;;;;5050482;28;20040;-50
2021/01/11 12:40:55;;;;;;;17.10;9.65;;;3.20;99.90;;;;;;5050495;28;20029;-50
2021/01/11 12:43:21;;;;;;;15.05;8.45;;;3.20;99.90;;;;;;5050980;28;20021;-50
2021/01/11 12:45:48;;;;;;;19.65;9.82;;;3.10;99.90;;;;;;5050118;28;20302;-51